Time;durP1;ratioP1;P1;durP2;ratioP2;P2;SDS_P1;SDS_P2;PMS_P1;PMS_P2;Temp;Humidity;BMP_temperature;BMP_pressure;BME280_temperature;BME280_humidity;BME280_pressure;Samples;Min_cycle;Max_cycle;Signal;HPM_P1;HPM_P2
2021/07/26 00:02:47;;;;;;;8.77;6.70;;;;;;;22.96;60.50;97475.97;8386140;28;20210;-65
2021/07/26 00:06:50;;;;;;;7.60;6.87;;;;;;;22.86;61.19;97473.47;8386197;28;20214;-65
2021/07/26 00:11:01;;;;;;;8.50;7.27;;;;;;;22.84;60.92;97472.78;8385674;28;20223;-65
2021/07/26 00:15:06;;;;;;;8.10;6.93;;;;;;;22.84;60.71;97470.16;8385736;28;20230;-65
2021/07/26 00:19:09;;;;;;;8.60;7.00;;;;;;;22.77;61.15;97466.47;8385828;28;20200;-65
2021/07/26 00:23:12;;;;;;;13.77;6.30;;;;;;;22.76;60.79;97462.19;8385451;28;20223;-65
2021/07/26 00:27:16;;;;;;;12.00;6.77;;;;;;;22.68;60.78;97473.53;8385368;28;20215;-65
2021/07/26 00:31:19;;;;;;;8.73;6.63;;;;;;;22.66;60.89;97464.94;8385076;28;20201;-65
2021/07/26 00:35:22;;;;;;;8.37;6.13;;;;;;;22.50;61.22;97465.66;8384748;28;20546;-65
2021/07/26 00:39:27;;;;;;;8.13;6.40;;;;;;;22.59;61.05;97467.38;8385073;28;20207;-65
2021/07/26 00:43:31;;;;;;;10.53;6.07;;;;;;;22.53;61.21;97460.09;8384717;28;20214;-65
2021/07/26 00:47:33;;;;;;;10.73;6.53;;;;;;;22.39;60.71;97472.06;8384658;28;20207;-65
2021/07/26 00:51:37;;;;;;;13.73;7.27;;;;;;;22.32;60.74;97480.72;8384635;28;20430;-65
2021/07/26 00:55:41;;;;;;;9.40;6.67;;;;;;;22.26;61.07;97471.63;8384349;28;20408;-65
2021/07/26 00:59:45;;;;;;;11.03;6.87;;;;;;;22.35;61.19;97473.34;8384124;28;20207;-65
2021/07/26 01:03:48;;;;;;;14.53;6.63;;;;;;;22.22;60.99;97465.78;8384300;28;20211;-65
2021/07/26 01:07:51;;;;;;;11.20;7.10;;;;;;;22.22;60.55;97465.78;8384026;28;20258;-65
2021/07/26 01:11:54;;;;;;;13.80;6.90;;;;;;;22.24;60.33;97468.28;8383825;28;20200;-65
2021/07/26 01:15:58;;;;;;;7.93;6.50;;;;;;;22.22;61.00;97472.88;8383757;28;20234;-65
2021/07/26 01:20:06;;;;;;;7.23;6.50;;;;;;;22.24;61.00;97473.56;8383602;28;20526;-65
2021/07/26 01:24:09;;;;;;;7.80;6.53;;;;;;;22.19;61.12;97463.44;8383614;28;20210;-65
2021/07/26 01:28:14;;;;;;;8.27;6.30;;;;;;;22.12;60.87;97461.59;8383474;28;20205;-65
2021/07/26 01:32:16;;;;;;;8.97;6.33;;;;;;;22.08;61.13;97462.88;8383217;28;20222;-65
2021/07/26 01:36:22;;;;;;;12.63;6.80;;;;;;;22.06;60.66;97471.75;8383212;28;20425;-65
2021/07/26 01:40:25;;;;;;;8.80;6.40;;;;;;;22.01;60.74;97479.31;8383602;28;20199;-65
2021/07/26 01:44:28;;;;;;;10.50;6.43;;;;;;;21.92;60.69;97476.75;8383053;28;20200;-65
2021/07/26 01:48:36;;;;;;;13.33;6.97;;;;;;;21.90;60.24;97487.44;8383082;28;20494;-65
2021/07/26 01:52:40;;;;;;;8.87;5.80;;;;;;;21.89;61.01;97496.31;8382926;28;20483;-65
2021/07/26 01:56:42;;;;;;;8.43;6.30;;;;;;;21.83;60.80;97489.84;8382705;28;20227;-65
2021/07/26 02:00:45;;;;;;;10.33;6.47;;;;;;;21.76;60.99;97495.88;8382319;28;20504;-65
2021/07/26 02:04:48;;;;;;;11.07;6.23;;;;;;;21.88;60.85;97497.31;8382668;28;20271;-65
2021/07/26 02:08:53;;;;;;;12.13;6.40;;;;;;;21.90;60.57;97492.72;8382604;28;20246;-65
2021/07/26 02:12:57;;;;;;;12.10;6.23;;;;;;;21.77;61.01;97498.34;8382618;28;20201;-65
2021/07/26 02:17:00;;;;;;;9.47;6.50;;;;;;;21.79;61.09;97504.31;8382442;28;20223;-65
2021/07/26 02:21:03;;;;;;;11.40;6.60;;;;;;;21.85;61.05;97503.69;8382455;28;20200;-65
2021/07/26 02:25:09;;;;;;;11.50;6.87;;;;;;;21.92;60.79;97513.66;8382400;28;20200;-65
2021/07/26 02:29:12;;;;;;;12.07;6.77;;;;;;;21.78;61.17;97513.19;8382345;28;20211;-65
2021/07/26 02:33:15;;;;;;;15.67;7.20;;;;;;;21.78;61.17;97515.84;8382101;28;20201;-65
2021/07/26 02:37:17;;;;;;;19.93;7.37;;;;;;;21.81;60.91;97509.44;8382205;28;20228;-65
2021/07/26 02:41:21;;;;;;;16.73;6.97;;;;;;;21.75;60.87;97510.84;8382076;28;20203;-65
2021/07/26 02:45:25;;;;;;;14.07;7.40;;;;;;;21.65;61.24;97510.94;8382079;28;20217;-65
2021/07/26 02:49:27;;;;;;;14.57;7.37;;;;;;;21.75;60.93;97517.94;8382283;28;20226;-66
2021/07/26 02:53:31;;;;;;;14.33;7.63;;;;;;;21.61;61.80;97516.63;8381128;28;20202;-65
2021/07/26 02:57:36;;;;;;;13.10;7.50;;;;;;;21.65;61.63;97516.19;8381424;28;20244;-65
2021/07/26 03:01:39;;;;;;;13.40;7.80;;;;;;;21.63;61.85;97527.88;8381704;28;20198;-66
2021/07/26 03:05:42;;;;;;;11.73;7.70;;;;;;;21.65;61.75;97518.00;8381701;28;20220;-66
2021/07/26 03:09:44;;;;;;;10.87;7.53;;;;;;;21.68;61.41;97515.06;8381619;28;20409;-66
2021/07/26 03:13:49;;;;;;;19.33;7.63;;;;;;;21.55;61.68;97520.72;8386888;28;20210;-66
2021/07/26 03:17:52;;;;;;;10.23;7.03;;;;;;;21.53;61.45;97527.09;8387853;28;20227;-66
2021/07/26 03:22:43;;;;;;;18.07;7.37;;;;;;;21.57;61.11;97536.34;8387450;28;20199;-66
2021/07/26 03:26:46;;;;;;;13.57;7.10;;;;;;;21.51;61.19;97535.13;8363148;28;20210;-66
2021/07/26 03:30:50;;;;;;;12.83;7.20;;;;;;;21.47;62.02;97539.84;8387125;28;20221;-66
2021/07/26 03:34:53;;;;;;;16.13;7.07;;;;;;;21.47;61.27;97537.22;8386841;28;20226;-66
2021/07/26 03:38:56;;;;;;;11.90;7.13;;;;;;;21.43;61.15;97540.28;8387048;28;20233;-66
2021/07/26 03:42:59;;;;;;;13.90;6.47;;;;;;;21.45;60.95;97541.00;8385761;28;20196;-66
2021/07/26 03:47:03;;;;;;;17.03;6.73;;;;;;;21.43;61.32;97535.00;8386274;28;20311;-65
2021/07/26 03:51:06;;;;;;;18.30;6.57;;;;;;;21.39;61.50;97531.03;8386173;28;20198;-65
2021/07/26 03:55:10;;;;;;;16.60;6.67;;;;;;;21.48;60.90;97524.91;8386472;28;20209;-65
2021/07/26 03:59:12;;;;;;;14.97;6.50;;;;;;;21.44;61.11;97528.81;8385860;28;20216;-66
2021/07/26 04:03:22;;;;;;;13.23;6.80;;;;;;;21.43;61.05;97524.47;8384896;28;20222;-66
2021/07/26 04:07:26;;;;;;;17.13;6.93;;;;;;;21.35;61.39;97529.66;8385872;28;20549;-66
2021/07/26 04:11:33;;;;;;;19.53;7.90;;;;;;;21.44;61.40;97539.34;8385779;28;20191;-66
2021/07/26 04:15:35;;;;;;;12.13;6.80;;;;;;;21.45;61.51;97535.72;8385657;28;20536;-65
2021/07/26 04:19:39;;;;;;;14.77;7.50;;;;;;;21.50;61.35;97540.56;8385092;28;20216;-65
2021/07/26 04:23:42;;;;;;;18.17;7.50;;;;;;;21.47;61.37;97534.59;8385086;28;20206;-65
2021/07/26 04:27:45;;;;;;;17.27;7.17;;;;;;;21.46;60.98;97535.59;8385052;28;20208;-65
2021/07/26 04:31:48;;;;;;;13.63;7.30;;;;;;;21.45;61.17;97538.34;8385330;28;20223;-65
2021/07/26 04:35:52;;;;;;;11.80;6.83;;;;;;;21.33;61.74;97537.69;8385107;28;20239;-65
2021/07/26 04:39:55;;;;;;;14.53;6.93;;;;;;;21.55;61.38;97540.94;8384413;28;20233;-65
2021/07/26 04:43:58;;;;;;;9.30;6.77;;;;;;;21.58;61.66;97541.47;8384760;28;20212;-65
2021/07/26 04:48:00;;;;;;;14.50;7.77;;;;;;;21.71;61.14;97553.47;8384820;28;20384;-65
2021/07/26 04:52:05;;;;;;;11.60;7.40;;;;;;;21.76;61.32;97557.34;8384479;28;20203;-65
2021/07/26 04:56:08;;;;;;;11.43;7.27;;;;;;;21.71;61.13;97548.22;8384180;28;20205;-66
2021/07/26 05:00:11;;;;;;;10.90;7.43;;;;;;;21.84;61.17;97549.50;8384365;28;20242;-66
2021/07/26 05:04:14;;;;;;;12.93;8.57;;;;;;;21.60;61.73;97547.41;8380687;28;20200;-65
2021/07/26 05:08:18;;;;;;;9.03;7.70;;;;;;;21.64;61.58;97567.22;8373605;28;20546;-66
2021/07/26 05:12:21;;;;;;;12.10;8.50;;;;;;;21.53;62.13;97567.41;8370205;28;20192;-65
2021/07/26 05:16:24;;;;;;;11.63;8.33;;;;;;;21.23;63.29;97577.25;8373614;28;20604;-66
2021/07/26 05:20:27;;;;;;;9.27;8.30;;;;;;;21.58;62.25;97578.34;8379292;28;20203;-66
2021/07/26 05:24:31;;;;;;;11.43;8.13;;;;;;;21.48;62.65;97578.41;8382731;28;20199;-65
2021/07/26 05:28:34;;;;;;;10.40;7.73;;;;;;;21.74;61.66;97576.88;8366095;28;20204;-65
2021/07/26 05:32:37;;;;;;;9.17;7.10;;;;;;;22.28;59.75;97576.97;8372458;28;20192;-65
2021/07/26 05:36:40;;;;;;;11.63;7.00;;;;;;;22.35;59.96;97583.28;8382543;28;20393;-65
2021/07/26 05:40:44;;;;;;;8.93;6.80;;;;;;;22.63;58.92;97584.00;8382605;28;20424;-66
2021/07/26 05:44:47;;;;;;;8.40;6.10;;;;;;;22.62;58.36;97577.09;8382815;28;20195;-66
2021/07/26 05:48:49;;;;;;;8.17;5.80;;;;;;;22.70;58.39;97582.41;8382990;28;20389;-66
2021/07/26 05:52:52;;;;;;;9.67;5.97;;;;;;;22.72;57.61;97582.28;8382891;28;20203;-66
2021/07/26 05:56:56;;;;;;;6.80;5.50;;;;;;;22.80;57.95;97575.22;8382603;28;20207;-66
2021/07/26 06:01:10;;;;;;;6.70;5.10;;;;;;;22.82;57.14;97580.34;8382847;28;20207;-66
2021/07/26 06:05:13;;;;;;;8.07;5.70;;;;;;;22.68;57.42;97581.75;8382768;28;20210;-66
2021/07/26 06:09:16;;;;;;;7.00;5.57;;;;;;;22.95;56.73;97577.31;8382523;28;20526;-66
2021/07/26 06:13:20;;;;;;;5.43;4.93;;;;;;;22.96;56.52;97579.78;8382617;28;20491;-66
2021/07/26 06:17:22;;;;;;;7.53;5.50;;;;;;;23.00;56.62;97575.84;8382459;28;20231;-66
2021/07/26 06:21:25;;;;;;;7.63;5.40;;;;;;;23.02;56.99;97583.63;8382320;28;20207;-66
2021/07/26 06:25:28;;;;;;;6.30;5.70;;;;;;;23.05;57.39;97580.69;8382501;28;20200;-66
2021/07/26 06:29:32;;;;;;;8.13;6.27;;;;;;;23.01;57.76;97581.97;8382135;28;20203;-66
2021/07/26 06:33:35;;;;;;;12.77;5.60;;;;;;;23.35;57.85;97583.81;8381735;28;20224;-67
2021/07/26 06:37:37;;;;;;;6.70;6.00;;;;;;;23.37;57.48;97580.03;8381123;28;20216;-66
2021/07/26 06:41:40;;;;;;;6.97;5.83;;;;;;;23.41;56.96;97589.28;8381285;28;20381;-66
2021/07/26 06:45:44;;;;;;;10.20;6.47;;;;;;;22.95;58.99;97588.69;8383603;28;20196;-66
2021/07/26 06:49:47;;;;;;;6.73;5.23;;;;;;;23.59;57.39;97583.94;8387492;28;20196;-65
2021/07/26 06:53:50;;;;;;;5.97;5.30;;;;;;;23.67;56.99;97582.31;8387352;28;20192;-66
2021/07/26 06:57:53;;;;;;;7.57;5.10;;;;;;;23.97;56.13;97581.75;8387461;28;20526;-66
2021/07/26 07:01:57;;;;;;;7.13;4.90;;;;;;;24.08;56.02;97590.38;8387301;28;20196;-66
2021/07/26 07:06:03;;;;;;;5.80;5.20;;;;;;;24.12;56.00;97589.88;8387922;28;20494;-65
2021/07/26 07:10:06;;;;;;;6.53;4.63;;;;;;;24.17;56.24;97590.22;8387142;28;20219;-67
2021/07/26 07:14:09;;;;;;;8.23;4.90;;;;;;;24.13;55.69;97598.66;8387588;28;20200;-66
2021/07/26 07:18:13;;;;;;;9.53;4.80;;;;;;;23.97;56.25;97589.69;8387445;28;20224;-66
2021/07/26 07:22:20;;;;;;;7.70;4.83;;;;;;;24.04;56.71;97567.88;8387399;28;20385;-66
2021/07/26 07:26:24;;;;;;;6.23;4.80;;;;;;;24.28;55.96;97572.38;8387226;28;20200;-67
2021/07/26 07:30:27;;;;;;;6.23;4.73;;;;;;;24.38;56.11;97583.63;8387082;28;20208;-66
2021/07/26 07:34:31;;;;;;;8.77;4.50;;;;;;;24.47;55.81;97603.81;8385562;28;20555;-66
2021/07/26 07:38:34;;;;;;;10.33;5.37;;;;;;;24.35;56.24;97616.53;8386772;28;20574;-66
2021/07/26 07:42:37;;;;;;;5.63;4.90;;;;;;;24.50;56.07;97627.31;8386806;28;20201;-67
2021/07/26 07:46:40;;;;;;;7.47;4.77;;;;;;;24.44;55.17;97617.34;8386717;28;20204;-67
2021/07/26 07:50:44;;;;;;;6.63;4.93;;;;;;;24.43;54.99;97606.94;8386546;28;20455;-68
2021/07/26 07:54:47;;;;;;;10.33;5.37;;;;;;;24.34;55.08;97614.06;8386243;28;20206;-68
2021/07/26 07:58:54;;;;;;;9.03;5.07;;;;;;;24.35;55.24;97615.69;8385686;28;20225;-68
2021/07/26 08:02:59;;;;;;;6.43;5.20;;;;;;;24.55;54.43;97614.41;8386214;28;20192;-69
2021/07/26 08:07:04;;;;;;;6.90;5.40;;;;;;;24.70;54.44;97611.94;8384961;28;20223;-70
2021/07/26 08:11:08;;;;;;;7.87;5.47;;;;;;;24.63;53.87;97615.41;8382538;28;20204;-68
2021/07/26 08:15:12;;;;;;;7.47;4.80;;;;;;;24.73;53.47;97622.22;8384148;28;20391;-71
2021/07/26 08:19:15;;;;;;;8.07;5.30;;;;;;;24.72;52.65;97628.50;8383708;28;20233;-71
2021/07/26 08:23:19;;;;;;;5.87;4.77;;;;;;;24.89;53.44;97637.25;8384707;28;20208;-70
2021/07/26 08:27:22;;;;;;;11.23;5.23;;;;;;;24.88;52.86;97632.94;8385276;28;20212;-69
2021/07/26 08:31:25;;;;;;;7.03;4.30;;;;;;;25.01;52.90;97629.78;8385280;28;20209;-69
2021/07/26 08:35:29;;;;;;;5.93;5.13;;;;;;;24.98;53.64;97635.44;8384885;28;20242;-70
2021/07/26 08:39:37;;;;;;;6.17;5.00;;;;;;;25.03;53.50;97637.56;8384789;28;20223;-70
2021/07/26 08:43:40;;;;;;;7.77;4.90;;;;;;;25.02;52.97;97636.75;8385056;28;20199;-69
2021/07/26 08:47:45;;;;;;;6.20;4.63;;;;;;;25.04;52.99;97636.59;8384783;28;20229;-69
2021/07/26 08:51:48;;;;;;;6.63;4.27;;;;;;;25.22;53.24;97639.84;8384578;28;20200;-70
2021/07/26 08:55:52;;;;;;;5.43;4.90;;;;;;;25.14;53.47;97642.53;8384443;28;20217;-69
2021/07/26 08:59:55;;;;;;;7.93;5.37;;;;;;;25.06;53.69;97643.38;8384399;28;20231;-67
2021/07/26 09:04:00;;;;;;;7.50;4.87;;;;;;;24.97;53.43;97647.00;8384374;28;20357;-67
2021/07/26 09:08:04;;;;;;;6.87;4.70;;;;;;;24.91;53.24;97642.38;8384024;28;20232;-67
2021/07/26 09:12:08;;;;;;;5.80;4.53;;;;;;;24.87;54.08;97641.88;8383965;28;20201;-67
2021/07/26 09:16:18;;;;;;;6.03;4.90;;;;;;;24.50;53.64;97642.34;8383814;28;20203;-67
2021/07/26 09:20:24;;;;;;;4.90;4.50;;;;;;;24.54;53.72;97639.25;8383828;28;20235;-67
2021/07/26 09:24:28;;;;;;;5.57;4.93;;;;;;;24.50;54.54;97644.97;8383574;28;20227;-67
2021/07/26 09:28:34;;;;;;;6.77;4.87;;;;;;;24.42;55.95;97647.63;8383477;28;20204;-67
2021/07/26 09:32:38;;;;;;;6.03;4.67;;;;;;;24.53;55.98;97644.69;8383323;28;20394;-67
2021/07/26 09:36:41;;;;;;;5.23;4.73;;;;;;;24.57;56.89;97653.97;8383083;28;20231;-67
2021/07/26 09:40:47;;;;;;;7.77;5.50;;;;;;;24.48;57.62;97645.16;8383099;28;20225;-67
2021/07/26 09:44:53;;;;;;;11.57;6.40;;;;;;;24.12;58.88;97647.22;8383207;28;20266;-67
2021/07/26 09:49:17;;;;;;;9.80;6.33;;;;;;;24.44;58.79;97653.59;8383097;28;20233;-66
2021/07/26 09:53:22;;;;;;;6.83;6.10;;;;;;;24.43;58.13;97662.50;8379996;28;20199;-69
2021/07/26 09:57:26;;;;;;;6.93;6.20;;;;;;;24.30;58.73;97660.34;8382824;28;20398;-69
2021/07/26 10:01:31;;;;;;;9.33;6.10;;;;;;;23.93;60.08;97662.41;8382736;28;20224;-69
2021/07/26 10:05:35;;;;;;;9.60;6.50;;;;;;;24.20;59.42;97660.50;8407991;28;20248;-69
2021/07/26 10:09:39;;;;;;;8.70;6.50;;;;;;;24.08;58.99;97669.72;8415971;28;20523;-69
2021/07/26 10:13:43;;;;;;;8.27;6.47;;;;;;;24.11;58.84;97672.03;8416094;28;20478;-70
2021/07/26 10:17:48;;;;;;;6.90;6.30;;;;;;;24.09;58.95;97674.84;8415957;28;20537;-70
2021/07/26 10:21:54;;;;;;;7.80;6.20;;;;;;;24.10;57.98;97675.66;8407470;28;20538;-69
2021/07/26 10:25:58;;;;;;;8.77;5.93;;;;;;;24.06;58.81;97667.22;8389283;28;20230;-70
2021/07/26 10:30:01;;;;;;;6.77;5.57;;;;;;;24.12;57.48;97665.75;8388807;28;20393;-73
2021/07/26 10:34:08;;;;;;;8.47;5.80;;;;;;;24.14;56.58;97667.25;8388642;28;20246;-69
2021/07/26 10:38:11;;;;;;;6.93;6.13;;;;;;;24.24;56.93;97667.13;8388919;28;20212;-70
2021/07/26 10:42:33;;;;;;;7.87;6.03;;;;;;;24.45;56.44;97668.50;8388698;28;20227;-69
2021/07/26 10:47:14;;;;;;;7.77;6.07;;;;;;;24.52;56.67;97667.69;8388810;28;20203;-70
2021/07/26 10:51:37;;;;;;;8.50;6.03;;;;;;;24.58;55.08;97660.94;8388607;28;20393;-68
2021/07/26 10:56:03;;;;;;;12.93;7.97;;;;;;;24.78;56.22;97656.94;8388377;28;20203;-67
2021/07/26 11:00:16;;;;;;;14.00;8.10;;;;;;;24.54;58.68;97652.47;8388351;28;20289;-70
2021/07/26 11:04:39;;;;;;;12.07;8.87;;;;;;;24.87;57.24;97655.13;8388133;28;20241;-69
2021/07/26 11:08:44;;;;;;;12.43;7.90;;;;;;;24.92;57.96;97652.81;8387868;28;20227;-68
2021/07/26 11:12:56;;;;;;;13.60;8.47;;;;;;;24.83;58.33;97648.53;8387573;28;20392;-68
2021/07/26 11:17:03;;;;;;;9.20;8.27;;;;;;;24.73;58.25;97643.41;8387729;28;20509;-68
2021/07/26 11:21:12;;;;;;;12.83;7.83;;;;;;;24.74;57.99;97645.03;8386977;28;20231;-69
2021/07/26 11:25:21;;;;;;;11.10;7.77;;;;;;;24.89;57.97;97639.09;8364046;28;20203;-68
2021/07/26 11:29:24;;;;;;;9.80;7.27;;;;;;;25.13;56.84;97633.75;8384128;28;20196;-68
2021/07/26 11:33:26;;;;;;;10.17;7.60;;;;;;;24.87;57.67;97630.47;8369373;28;20514;-68
2021/07/26 11:37:30;;;;;;;13.13;7.43;;;;;;;25.23;56.02;97623.00;8369556;28;20192;-68
2021/07/26 11:41:34;;;;;;;8.23;7.03;;;;;;;25.31;56.58;97612.38;8369421;28;20538;-67
2021/07/26 11:45:37;;;;;;;11.13;6.97;;;;;;;25.54;55.17;97611.63;8383580;28;20501;-67
2021/07/26 11:49:46;;;;;;;7.97;6.63;;;;;;;25.17;56.11;97615.69;8369227;28;20204;-67
2021/07/26 11:53:56;;;;;;;7.77;6.97;;;;;;;25.35;53.91;97615.50;8385730;28;20199;-67
2021/07/26 11:58:02;;;;;;;10.53;6.90;;;;;;;25.81;53.09;97604.22;8383492;28;20199;-66
2021/07/26 12:02:07;;;;;;;8.00;5.80;;;;;;;26.86;50.75;97599.22;8361518;28;20223;-67
2021/07/26 12:06:10;;;;;;;6.83;6.10;;;;;;;27.16;50.55;97603.75;8355573;28;20194;-67
2021/07/26 12:10:14;;;;;;;8.93;6.20;;;;;;;27.08;48.54;97599.34;8370067;28;20561;-68
2021/07/26 12:14:26;;;;;;;6.27;5.17;;;;;;;26.90;49.07;97595.22;8382565;28;20506;-67
2021/07/26 12:18:32;;;;;;;7.50;4.70;;;;;;;27.60;47.71;97584.34;8384175;28;20192;-67
2021/07/26 12:22:39;;;;;;;7.17;5.00;;;;;;;28.06;46.11;97582.25;8383044;28;20238;-68
2021/07/26 12:27:00;;;;;;;5.10;4.60;;;;;;;28.20;45.32;97579.72;8383615;28;20197;-67
2021/07/26 12:31:23;;;;;;;7.33;4.57;;;;;;;27.87;42.37;97574.81;8382969;28;20198;-68
2021/07/26 12:35:28;;;;;;;4.83;3.90;;;;;;;28.12;44.22;97588.66;8383198;28;20254;-68
2021/07/26 12:39:36;;;;;;;4.17;3.77;;;;;;;27.54;43.21;97587.75;8381446;28;20402;-68
2021/07/26 12:43:42;;;;;;;5.50;3.50;;;;;;;27.71;42.32;97577.72;8372216;28;20201;-69
2021/07/26 12:47:46;;;;;;;3.97;3.67;;;;;;;27.56;42.71;97583.06;8376087;28;20257;-68
2021/07/26 12:51:50;;;;;;;8.50;4.50;;;;;;;27.39;44.80;97588.56;8369984;28;20207;-68
2021/07/26 12:55:54;;;;;;;6.13;4.43;;;;;;;27.25;44.92;97590.22;8367585;28;20200;-69
2021/07/26 12:59:57;;;;;;;4.70;3.97;;;;;;;27.05;44.62;97584.56;8366897;28;20219;-69
2021/07/26 13:04:02;;;;;;;6.37;4.10;;;;;;;26.99;44.49;97582.66;8372112;28;20392;-68
2021/07/26 13:08:05;;;;;;;4.20;3.80;;;;;;;27.20;45.14;97583.78;8369407;28;20555;-69
2021/07/26 13:12:08;;;;;;;4.30;3.90;;;;;;;27.58;44.96;97583.69;8380058;28;20205;-69
2021/07/26 13:16:12;;;;;;;5.47;4.13;;;;;;;27.49;44.03;97570.50;8372111;28;20227;-69
2021/07/26 13:20:16;;;;;;;6.93;4.70;;;;;;;27.24;45.81;97569.09;8379556;28;20560;-68
2021/07/26 13:24:20;;;;;;;5.00;4.50;;;;;;;27.30;44.70;97571.06;8380540;28;20210;-71
2021/07/26 13:28:23;;;;;;;7.23;4.10;;;;;;;28.11;44.65;97560.38;8381764;28;20199;-71
2021/07/26 13:32:26;;;;;;;6.27;4.10;;;;;;;28.57;42.64;97551.19;8362304;28;20262;-78
2021/07/26 13:36:31;;;;;;;4.10;3.60;;;;;;;28.65;42.18;97553.72;8382255;28;20417;-72
2021/07/26 13:40:34;;;;;;;4.43;3.87;;;;;;;28.51;41.85;97547.44;8381372;28;20217;-73
2021/07/26 13:44:37;;;;;;;4.57;3.87;;;;;;;28.82;41.96;97549.72;8372678;28;20192;-74
2021/07/26 13:48:39;;;;;;;6.03;4.20;;;;;;;29.04;43.45;97557.69;8366205;28;20194;-73
2021/07/26 13:52:44;;;;;;;4.57;3.73;;;;;;;28.72;41.52;97559.91;8365541;28;20201;-72
2021/07/26 13:56:47;;;;;;;4.50;4.10;;;;;;;29.05;41.58;97554.81;8364890;28;20199;-72
2021/07/26 14:00:49;;;;;;;6.00;3.63;;;;;;;28.84;39.75;97558.38;8365085;28;20223;-72
2021/07/26 14:04:52;;;;;;;4.83;2.97;;;;;;;29.43;38.85;97551.78;8365438;28;20513;-72
2021/07/26 14:09:00;;;;;;;4.33;3.53;;;;;;;29.40;38.78;97538.81;8379196;28;20405;-73
2021/07/26 14:13:04;;;;;;;3.93;3.57;;;;;;;29.13;40.70;97529.03;8365258;28;20206;-74
2021/07/26 14:17:08;;;;;;;6.67;4.60;;;;;;;28.51;41.68;97525.31;8378875;28;20192;-69
2021/07/26 14:21:11;;;;;;;5.97;4.27;;;;;;;28.71;41.90;97528.97;8381533;28;20219;-69
2021/07/26 14:25:15;;;;;;;5.30;4.60;;;;;;;28.25;41.97;97526.72;8381507;28;20225;-69
2021/07/26 14:29:22;;;;;;;4.73;4.23;;;;;;;28.61;44.21;97529.28;8381456;28;20195;-69
2021/07/26 14:33:26;;;;;;;5.63;3.93;;;;;;;28.55;40.54;97531.91;8378617;28;20192;-69
2021/07/26 14:37:29;;;;;;;5.80;3.70;;;;;;;28.71;41.93;97528.97;8381523;28;20199;-69
2021/07/26 14:41:33;;;;;;;4.83;3.73;;;;;;;28.22;42.45;97529.78;8381267;28;20417;-68
2021/07/26 14:45:36;;;;;;;5.37;3.87;;;;;;;27.43;43.28;97536.66;8377359;28;20205;-68
2021/07/26 14:49:39;;;;;;;4.83;3.70;;;;;;;27.50;43.58;97536.75;8364750;28;20266;-68
2021/07/26 14:53:42;;;;;;;4.90;3.30;;;;;;;27.33;41.54;97540.63;8380979;28;20197;-69
2021/07/26 14:57:46;;;;;;;3.50;3.20;;;;;;;27.33;42.01;97552.09;8381189;28;20193;-68
2021/07/26 15:01:49;;;;;;;4.57;3.20;;;;;;;27.20;41.92;97547.38;8380874;28;20341;-68
2021/07/26 15:05:52;;;;;;;6.13;3.40;;;;;;;27.03;42.65;97557.38;8381837;28;20193;-68
2021/07/26 15:09:55;;;;;;;4.03;3.50;;;;;;;26.91;43.48;97559.66;8386978;28;20217;-68
2021/07/26 15:13:59;;;;;;;3.90;3.20;;;;;;;26.94;44.41;97563.78;8370672;28;20484;-68
2021/07/26 15:18:02;;;;;;;3.40;3.20;;;;;;;26.91;44.51;97557.00;8384283;28;20197;-68
2021/07/26 15:22:05;;;;;;;10.10;3.70;;;;;;;26.86;45.16;97550.56;8387479;28;20237;-72
2021/07/26 15:26:08;;;;;;;7.87;3.93;;;;;;;26.76;45.80;97544.72;8387480;28;20202;-73
2021/07/26 15:30:13;;;;;;;16.70;4.57;;;;;;;26.70;45.69;97539.13;8387321;28;20380;-72
2021/07/26 15:34:15;;;;;;;5.40;4.20;;;;;;;26.64;46.40;97533.72;8386965;28;20243;-72
2021/07/26 15:38:18;;;;;;;7.27;4.70;;;;;;;26.69;46.62;97539.28;8372497;28;20204;-72
2021/07/26 15:42:21;;;;;;;8.83;6.33;;;;;;;26.76;46.76;97552.69;8386281;28;20230;-72
2021/07/26 15:46:26;;;;;;;6.37;5.50;;;;;;;26.76;47.72;97545.53;8386920;28;20216;-73
2021/07/26 15:50:28;;;;;;;5.90;5.23;;;;;;;26.82;48.11;97530.69;8370132;28;20197;-74
2021/07/26 15:54:31;;;;;;;9.97;4.60;;;;;;;26.86;48.33;97537.28;8368960;28;20193;-72
2021/07/26 15:58:34;;;;;;;4.13;3.73;;;;;;;26.94;47.43;97539.88;8378728;28;20497;-68
2021/07/26 16:02:39;;;;;;;7.93;3.83;;;;;;;26.88;48.66;97545.91;8374753;28;20230;-69
2021/07/26 16:06:43;;;;;;;8.73;3.70;;;;;;;26.92;49.12;97558.66;8376153;28;20205;-68
2021/07/26 16:10:46;;;;;;;5.97;3.83;;;;;;;26.80;49.84;97551.31;8382175;28;20223;-68
2021/07/26 16:14:48;;;;;;;7.47;4.00;;;;;;;26.76;49.92;97566.78;8366215;28;20204;-68
2021/07/26 16:18:53;;;;;;;4.80;3.57;;;;;;;26.59;49.83;97581.19;8384077;28;20201;-68
2021/07/26 16:22:55;;;;;;;4.17;3.40;;;;;;;26.54;50.21;97571.09;8384701;28;20554;-68
2021/07/26 16:26:58;;;;;;;3.97;3.40;;;;;;;26.55;49.71;97563.97;8385403;28;20214;-68
2021/07/26 16:31:03;;;;;;;6.00;3.47;;;;;;;26.46;50.45;97556.03;8385143;28;20207;-69
2021/07/26 16:35:08;;;;;;;8.03;3.30;;;;;;;26.51;49.89;97550.22;8384813;28;20557;-69
2021/07/26 16:39:10;;;;;;;4.27;3.30;;;;;;;26.40;50.17;97553.28;8385101;28;20202;-68
2021/07/26 16:43:13;;;;;;;6.80;3.80;;;;;;;26.41;50.40;97553.13;8383717;28;20227;-68
2021/07/26 16:47:16;;;;;;;5.00;3.30;;;;;;;26.31;50.08;97544.56;8384695;28;20202;-68
2021/07/26 16:51:20;;;;;;;8.13;3.30;;;;;;;26.19;50.17;97528.25;8384546;28;20208;-66
2021/07/26 16:55:23;;;;;;;3.57;3.00;;;;;;;26.12;50.31;97524.63;8384381;28;20204;-67
2021/07/26 16:59:26;;;;;;;4.93;3.07;;;;;;;26.07;49.75;97535.78;8384182;28;20525;-68
2021/07/26 17:03:28;;;;;;;3.90;3.00;;;;;;;26.01;49.88;97539.16;8384157;28;20235;-71
2021/07/26 17:07:33;;;;;;;12.00;3.07;;;;;;;26.04;50.17;97537.97;8384106;28;20552;-67
2021/07/26 17:11:38;;;;;;;3.13;2.83;;;;;;;25.94;50.91;97551.47;8384176;28;20525;-68
2021/07/26 17:15:41;;;;;;;6.07;3.20;;;;;;;25.92;50.87;97558.78;8383614;28;20212;-67
2021/07/26 17:19:43;;;;;;;4.87;3.60;;;;;;;25.89;50.76;97573.19;8383854;28;20203;-67
2021/07/26 17:23:48;;;;;;;7.10;3.90;;;;;;;25.81;51.31;97589.13;8383655;28;20237;-67
2021/07/26 17:27:50;;;;;;;6.73;4.00;;;;;;;25.71;52.30;97605.25;8383569;28;20210;-67
2021/07/26 17:31:53;;;;;;;5.40;3.60;;;;;;;25.62;52.06;97600.19;8382482;28;20210;-67
2021/07/26 17:35:56;;;;;;;8.43;4.47;;;;;;;25.58;52.40;97599.69;8383073;28;20284;-67
2021/07/26 17:40:00;;;;;;;4.07;3.20;;;;;;;25.60;51.89;97591.56;8383270;28;20206;-67
2021/07/26 17:44:03;;;;;;;6.33;3.43;;;;;;;25.39;51.94;97587.66;8383050;28;20237;-68
2021/07/26 17:48:06;;;;;;;5.17;3.20;;;;;;;25.39;52.25;97592.97;8383072;28;20203;-68
2021/07/26 17:52:12;;;;;;;4.90;3.63;;;;;;;25.37;52.79;97592.31;8382911;28;20206;-68
2021/07/26 17:56:16;;;;;;;5.13;3.07;;;;;;;25.41;53.16;97606.88;8383018;28;20210;-68
2021/07/26 18:00:38;;;;;;;4.40;3.00;;;;;;;25.38;53.26;97619.63;8383101;28;20214;-67
2021/07/26 18:04:41;;;;;;;4.10;3.40;;;;;;;25.32;53.23;97615.84;8382720;28;20235;-68
2021/07/26 18:08:43;;;;;;;5.00;3.17;;;;;;;25.30;53.66;97610.72;8382510;28;20233;-68
2021/07/26 18:12:50;;;;;;;5.73;3.60;;;;;;;25.34;53.85;97624.44;8381701;28;20395;-68
2021/07/26 18:17:07;;;;;;;7.00;3.50;;;;;;;25.30;53.80;97621.34;8381474;28;20200;-68
2021/07/26 18:21:10;;;;;;;7.83;3.80;;;;;;;25.25;53.96;97605.09;8381615;28;20193;-69
2021/07/26 18:25:13;;;;;;;6.80;3.73;;;;;;;25.20;53.59;97606.59;8379681;28;20208;-68
2021/07/26 18:29:18;;;;;;;3.57;3.23;;;;;;;25.16;54.28;97601.59;8382345;28;20209;-68
2021/07/26 18:33:22;;;;;;;3.47;3.17;;;;;;;25.09;54.35;97608.59;8382220;28;20364;-68
2021/07/26 18:37:25;;;;;;;6.07;3.33;;;;;;;25.06;54.81;97610.75;8382450;28;20212;-68
2021/07/26 18:41:27;;;;;;;4.77;3.47;;;;;;;24.98;54.93;97609.78;8384147;28;20214;-68
2021/07/26 18:45:32;;;;;;;3.87;3.43;;;;;;;24.94;55.29;97604.97;8388659;28;20202;-68
2021/07/26 18:49:35;;;;;;;4.87;3.20;;;;;;;24.93;55.39;97593.53;8388395;28;20312;-68
2021/07/26 18:53:38;;;;;;;4.13;3.43;;;;;;;24.90;55.44;97599.19;8387622;28;20223;-68
2021/07/26 18:57:42;;;;;;;4.37;3.63;;;;;;;24.82;55.85;97611.59;8377614;28;20204;-68
2021/07/26 19:01:48;;;;;;;4.40;3.77;;;;;;;24.73;55.87;97621.38;8355035;28;20231;-67
2021/07/26 19:05:52;;;;;;;6.57;3.47;;;;;;;24.64;56.51;97625.03;8355062;28;20211;-67
2021/07/26 19:09:55;;;;;;;6.63;3.77;;;;;;;24.64;56.39;97625.84;8354678;28;20392;-68